createdAt,value
2018-07-16T00:01:07.923Z,20.23
2018-07-16T00:04:10.029Z,20.25
2018-07-16T00:07:12.362Z,20.18
2018-07-16T00:10:14.349Z,20.12
2018-07-16T00:13:17.192Z,20.09
2018-07-16T00:16:19.341Z,20.04
2018-07-16T00:19:21.535Z,20.03
2018-07-16T00:22:23.615Z,20.06
2018-07-16T00:25:31.670Z,19.99
2018-07-16T00:28:33.842Z,19.93
2018-07-16T00:31:35.888Z,19.92
2018-07-16T00:34:37.892Z,20.04
2018-07-16T00:37:40.064Z,20.14
2018-07-16T00:40:42.236Z,20.17
2018-07-16T00:43:44.309Z,20.21
2018-07-16T00:46:47.612Z,20.24
2018-07-16T00:49:49.764Z,20.29
2018-07-16T00:52:51.732Z,20.24
2018-07-16T00:55:53.792Z,20.00
2018-07-16T00:58:55.900Z,19.80
2018-07-16T01:01:57.867Z,19.65
2018-07-16T01:04:59.945Z,19.60
2018-07-16T01:08:02.089Z,19.66
2018-07-16T01:11:04.179Z,19.75
2018-07-16T01:14:06.268Z,19.79
2018-07-16T01:17:08.444Z,19.73
2018-07-16T01:20:10.691Z,19.82
2018-07-16T01:23:12.912Z,19.85
2018-07-16T01:26:17.088Z,19.68
2018-07-16T01:29:19.262Z,19.68
2018-07-16T01:32:21.439Z,19.68
2018-07-16T01:35:23.520Z,19.68
2018-07-16T01:38:25.581Z,19.74
2018-07-16T01:41:27.612Z,19.71
2018-07-16T01:44:29.687Z,19.76
2018-07-16T01:47:31.815Z,19.79
2018-07-16T01:50:33.832Z,19.77
2018-07-16T01:53:35.956Z,19.78
2018-07-16T01:56:38.090Z,19.83
2018-07-16T01:59:40.148Z,19.84
2018-07-16T02:02:42.126Z,19.84
2018-07-16T02:05:44.175Z,19.82
2018-07-16T02:08:47.529Z,19.82
2018-07-16T02:11:49.696Z,19.82
2018-07-16T02:14:51.829Z,19.82
2018-07-16T02:17:53.892Z,19.82
2018-07-16T02:20:56.993Z,19.76
2018-07-16T02:23:59.092Z,19.78
2018-07-16T02:27:01.192Z,19.78
2018-07-16T02:30:03.760Z,19.77
2018-07-16T02:33:05.940Z,19.79
2018-07-16T02:36:08.000Z,19.82
2018-07-16T02:39:10.064Z,19.79
2018-07-16T02:42:12.216Z,19.75
2018-07-16T02:45:14.276Z,19.73
2018-07-16T02:48:17.127Z,19.71
2018-07-16T02:51:19.281Z,19.65
2018-07-16T02:54:21.412Z,19.66
2018-07-16T02:57:23.484Z,19.66
2018-07-16T03:00:25.655Z,19.55
2018-07-16T03:03:27.620Z,19.51
2018-07-16T03:06:29.685Z,19.42
2018-07-16T03:09:31.871Z,19.43
2018-07-16T03:12:33.928Z,19.46
2018-07-16T03:15:36.024Z,19.47
2018-07-16T03:18:38.185Z,19.46
2018-07-16T03:21:40.399Z,19.44
2018-07-16T03:24:42.744Z,19.43
2018-07-16T03:27:44.877Z,19.43
2018-07-16T03:30:48.102Z,19.42
2018-07-16T03:33:50.307Z,19.37
2018-07-16T03:36:52.421Z,19.36
2018-07-16T03:39:54.499Z,19.37
2018-07-16T03:42:56.517Z,19.32
2018-07-16T03:45:58.683Z,19.38
2018-07-16T03:49:00.855Z,19.36
2018-07-16T03:52:02.921Z,19.37
2018-07-16T03:55:05.057Z,19.38
2018-07-16T03:58:07.156Z,19.35
2018-07-16T04:01:09.096Z,19.38
2018-07-16T04:04:11.291Z,19.36
2018-07-16T04:07:14.392Z,19.19
2018-07-16T04:10:17.444Z,18.97
2018-07-16T04:13:19.532Z,18.79
2018-07-16T04:16:21.576Z,18.67
2018-07-16T04:19:23.756Z,18.79
2018-07-16T04:22:25.827Z,18.79
2018-07-16T04:25:27.917Z,18.74
2018-07-16T04:28:30.060Z,18.76
2018-07-16T04:31:32.211Z,18.83
2018-07-16T04:34:34.293Z,18.85
2018-07-16T04:37:36.604Z,18.74
2018-07-16T04:40:38.744Z,18.81
2018-07-16T04:43:40.706Z,18.88
2018-07-16T04:46:42.787Z,18.95
2018-07-16T04:49:45.052Z,18.94
2018-07-16T04:52:48.299Z,18.92
2018-07-16T04:55:50.410Z,18.94
2018-07-16T04:58:52.548Z,19.03
2018-07-16T05:01:54.671Z,19.13
2018-07-16T05:04:56.730Z,19.25
2018-07-16T05:07:58.881Z,19.32
2018-07-16T05:11:01.052Z,19.25
2018-07-16T05:14:03.213Z,19.29
2018-07-16T05:17:13.166Z,19.33
2018-07-16T05:20:15.244Z,19.35
2018-07-16T05:23:18.343Z,19.34
2018-07-16T05:26:21.473Z,19.34
2018-07-16T05:29:23.547Z,19.35
2018-07-16T05:32:25.899Z,19.28
2018-07-16T05:35:28.840Z,19.37
2018-07-16T05:38:32.013Z,19.51
2018-07-16T05:41:34.415Z,19.52
2018-07-16T05:44:36.440Z,19.60
2018-07-16T05:47:38.616Z,19.66
2018-07-16T05:50:40.729Z,19.73
2018-07-16T05:53:42.760Z,19.60
2018-07-16T05:56:44.745Z,19.61
2018-07-16T05:59:47.604Z,19.71
2018-07-16T06:02:49.762Z,19.89
2018-07-16T06:05:51.844Z,20.02
2018-07-16T06:08:54.101Z,20.18
2018-07-16T06:11:56.183Z,20.26
2018-07-16T06:14:58.528Z,20.29
2018-07-16T06:18:00.579Z,20.27
2018-07-16T06:21:02.524Z,20.34
2018-07-16T06:24:04.977Z,20.41
2018-07-16T06:27:07.055Z,20.29
2018-07-16T06:30:09.172Z,20.06
2018-07-16T06:33:11.337Z,20.21
2018-07-16T06:36:13.336Z,20.32
2018-07-16T06:39:15.311Z,20.27
2018-07-16T06:42:18.512Z,20.42
2018-07-16T06:45:20.634Z,20.57
2018-07-16T06:48:22.713Z,20.72
2018-07-16T06:51:24.813Z,20.85
2018-07-16T06:54:26.952Z,20.91
2018-07-16T06:57:28.995Z,20.94
2018-07-16T07:00:30.987Z,21.08
2018-07-16T07:03:33.097Z,21.11
2018-07-16T07:06:35.125Z,21.21
2018-07-16T07:09:37.111Z,21.27
2018-07-16T07:12:39.225Z,21.42
2018-07-16T07:15:41.323Z,21.43
2018-07-16T07:18:43.452Z,21.56
2018-07-16T07:21:45.502Z,21.62
2018-07-16T07:24:48.511Z,21.52
2018-07-16T07:27:50.473Z,21.33
2018-07-16T07:30:52.499Z,21.61
2018-07-16T07:33:54.589Z,21.81
2018-07-16T07:36:56.724Z,22.08
2018-07-16T07:39:58.845Z,22.19
2018-07-16T07:43:00.968Z,22.20
2018-07-16T07:46:03.165Z,22.38
2018-07-16T07:49:05.343Z,22.71
2018-07-16T07:52:07.421Z,22.87
2018-07-16T07:55:09.898Z,22.82
2018-07-16T07:58:11.728Z,22.84
2018-07-16T08:01:13.742Z,22.82
2018-07-16T08:04:15.915Z,22.91
2018-07-16T08:07:19.112Z,22.94
2018-07-16T08:10:21.110Z,23.06
2018-07-16T08:13:23.242Z,23.00
2018-07-16T08:16:25.270Z,23.06
2018-07-16T08:19:27.345Z,23.14
2018-07-16T08:22:29.544Z,23.12
2018-07-16T08:25:31.626Z,23.14
2018-07-16T08:28:33.712Z,23.12
2018-07-16T08:31:35.867Z,23.01
2018-07-16T08:34:37.941Z,23.37
2018-07-16T08:37:39.944Z,23.37
2018-07-16T08:40:42.039Z,23.43
2018-07-16T08:43:44.042Z,23.52
2018-07-16T08:46:47.161Z,23.56
2018-07-16T08:49:50.241Z,23.60
2018-07-16T08:52:52.446Z,23.51
2018-07-16T08:55:54.460Z,23.62
2018-07-16T08:58:56.508Z,23.40
2018-07-16T09:01:58.701Z,23.49
2018-07-16T09:05:00.985Z,23.65
2018-07-16T09:08:03.063Z,23.75
2018-07-16T09:11:05.401Z,23.85
2018-07-16T09:14:07.455Z,24.15
2018-07-16T09:17:09.921Z,24.09
2018-07-16T09:20:11.919Z,24.14
2018-07-16T09:23:14.019Z,24.39
2018-07-16T09:26:16.112Z,24.52
2018-07-16T09:29:20.093Z,24.81
2018-07-16T09:32:22.184Z,24.77
2018-07-16T09:35:24.346Z,25.11
2018-07-16T09:38:26.432Z,25.14
2018-07-16T09:41:28.585Z,25.15
2018-07-16T09:44:30.645Z,25.40
2018-07-16T09:47:32.798Z,25.74
2018-07-16T09:50:34.938Z,26.12
2018-07-16T09:53:37.080Z,26.24
2018-07-16T09:56:39.254Z,26.15
2018-07-16T09:59:41.538Z,26.14
2018-07-16T10:02:43.710Z,26.03
2018-07-16T10:05:45.753Z,26.30
2018-07-16T10:08:47.866Z,26.26
2018-07-16T10:11:50.651Z,26.53
2018-07-16T10:14:52.805Z,26.64
2018-07-16T10:17:55.046Z,26.69
2018-07-16T10:20:57.044Z,26.67
2018-07-16T10:23:59.074Z,26.66
2018-07-16T10:27:01.085Z,26.80
2018-07-16T10:30:03.276Z,26.95
2018-07-16T10:33:05.394Z,27.25
2018-07-16T10:36:07.511Z,27.20
2018-07-16T10:39:09.529Z,26.93
2018-07-16T10:42:11.820Z,27.01
2018-07-16T10:45:13.898Z,27.08
2018-07-16T10:48:16.105Z,27.09
2018-07-16T10:51:18.157Z,26.95
2018-07-16T10:54:21.234Z,27.09
2018-07-16T10:57:23.441Z,27.23
2018-07-16T11:00:26.040Z,27.36
2018-07-16T11:03:28.165Z,27.43
2018-07-16T11:06:30.348Z,27.50
2018-07-16T11:09:32.296Z,27.50
2018-07-16T11:12:34.438Z,27.39
2018-07-16T11:15:36.516Z,27.63
2018-07-16T11:18:38.593Z,27.76
2018-07-16T11:21:40.696Z,27.71
2018-07-16T11:24:42.746Z,27.80
2018-07-16T11:27:44.695Z,27.91
2018-07-16T11:30:46.760Z,27.80
2018-07-16T11:33:50.140Z,27.86
2018-07-16T11:36:52.436Z,28.10
2018-07-16T11:39:54.408Z,28.19
2018-07-16T11:42:56.461Z,28.38
2018-07-16T11:45:58.552Z,28.25
2018-07-16T11:49:00.512Z,28.21
2018-07-16T11:52:02.536Z,28.34
2018-07-16T11:55:05.667Z,28.32
2018-07-16T11:58:07.855Z,28.03
2018-07-16T12:01:09.938Z,27.97
2018-07-16T12:04:11.888Z,28.30
2018-07-16T12:07:14.994Z,28.51
2018-07-16T12:10:17.149Z,28.49
2018-07-16T12:13:20.520Z,28.55
2018-07-16T12:16:22.727Z,28.51
2018-07-16T12:19:24.877Z,28.62
2018-07-16T12:22:26.944Z,28.89
2018-07-16T12:25:29.011Z,28.78
2018-07-16T12:28:31.053Z,29.01
2018-07-16T12:31:33.120Z,28.80
2018-07-16T12:34:35.116Z,28.89
2018-07-16T12:37:37.229Z,29.08
2018-07-16T12:40:39.501Z,29.24
2018-07-16T12:43:41.467Z,29.22
2018-07-16T12:46:43.641Z,29.17
2018-07-16T12:49:45.795Z,29.18
2018-07-16T12:52:47.793Z,29.14
2018-07-16T12:55:51.104Z,29.14
2018-07-16T12:58:53.140Z,29.23
2018-07-16T13:01:55.139Z,29.35
2018-07-16T13:04:57.258Z,29.45
2018-07-16T13:07:59.496Z,29.34
2018-07-16T13:11:01.590Z,29.44
2018-07-16T13:14:03.658Z,29.59
2018-07-16T13:17:05.799Z,29.85
2018-07-16T13:20:07.909Z,30.04
2018-07-16T13:23:10.162Z,30.17
2018-07-16T13:26:12.556Z,30.16
2018-07-16T13:29:14.636Z,30.09
2018-07-16T13:32:16.657Z,29.93
2018-07-16T13:35:18.764Z,30.04
2018-07-16T13:38:21.760Z,29.57
2018-07-16T13:41:23.855Z,29.57
2018-07-16T13:44:25.990Z,29.54
2018-07-16T13:47:28.016Z,29.45
2018-07-16T13:50:30.253Z,29.56
2018-07-16T13:53:32.411Z,29.87
2018-07-16T13:56:34.480Z,30.04
2018-07-16T13:59:36.639Z,30.26
2018-07-16T14:02:38.606Z,29.96
2018-07-16T14:05:40.685Z,29.87
2018-07-16T14:08:42.773Z,29.54
2018-07-16T14:11:44.997Z,29.77
2018-07-16T14:14:47.115Z,29.91
2018-07-16T14:17:49.305Z,29.98
2018-07-16T14:20:52.463Z,30.17
2018-07-16T14:23:54.667Z,30.10
2018-07-16T14:26:56.855Z,29.86
2018-07-16T14:29:58.936Z,29.66
2018-07-16T14:33:00.951Z,29.68
2018-07-16T14:36:02.991Z,29.63
2018-07-16T14:39:06.373Z,29.98
2018-07-16T14:42:08.484Z,30.10
2018-07-16T14:45:10.665Z,29.70
2018-07-16T14:48:12.721Z,29.79
2018-07-16T14:51:15.027Z,29.99
2018-07-16T14:54:17.154Z,30.14
2018-07-16T14:57:19.350Z,30.03
2018-07-16T15:00:22.661Z,29.96
2018-07-16T15:03:24.808Z,30.22
2018-07-16T15:06:26.882Z,30.28
2018-07-16T15:09:29.059Z,30.43
2018-07-16T15:12:31.048Z,30.45
2018-07-16T15:15:33.071Z,30.24
2018-07-16T15:18:35.253Z,30.17
2018-07-16T15:21:37.439Z,29.80
2018-07-16T15:24:39.373Z,29.60
2018-07-16T15:27:41.532Z,29.22
2018-07-16T15:30:43.698Z,29.18
2018-07-16T15:33:45.957Z,29.34
2018-07-16T15:36:48.223Z,29.69
2018-07-16T15:39:50.453Z,29.67
2018-07-16T15:42:53.738Z,29.40
2018-07-16T15:45:55.863Z,29.37
2018-07-16T15:48:58.136Z,29.54
2018-07-16T15:52:00.279Z,29.55
2018-07-16T15:55:02.436Z,29.45
2018-07-16T15:58:04.646Z,29.34
2018-07-16T16:01:06.790Z,29.19
2018-07-16T16:04:08.810Z,29.23
2018-07-16T16:07:10.911Z,29.32
2018-07-16T16:10:12.973Z,29.43
2018-07-16T16:13:14.945Z,29.69
2018-07-16T16:16:17.066Z,29.58
2018-07-16T16:19:19.055Z,29.69
2018-07-16T16:22:22.309Z,29.95
2018-07-16T16:25:24.379Z,30.16
2018-07-16T16:28:26.605Z,30.26
2018-07-16T16:31:28.792Z,30.04
2018-07-16T16:34:31.103Z,29.84
2018-07-16T16:37:33.253Z,29.62
2018-07-16T16:40:35.410Z,29.54
2018-07-16T16:43:37.508Z,29.46
2018-07-16T16:46:39.524Z,29.37
2018-07-16T16:49:41.504Z,29.35
2018-07-16T16:52:43.618Z,29.30
2018-07-16T16:55:45.660Z,29.23
2018-07-16T16:58:47.823Z,29.16
2018-07-16T17:01:49.898Z,29.04
2018-07-16T17:04:52.970Z,29.03
2018-07-16T17:07:55.047Z,29.00
2018-07-16T17:10:57.136Z,28.98
2018-07-16T17:13:59.295Z,28.95
2018-07-16T17:17:01.508Z,28.90
2018-07-16T17:20:03.618Z,28.83
2018-07-16T17:23:05.829Z,28.74
2018-07-16T17:26:08.051Z,28.72
2018-07-16T17:29:10.019Z,28.79
2018-07-16T17:32:12.100Z,28.84
2018-07-16T17:35:14.104Z,28.80
2018-07-16T17:38:16.167Z,28.80
2018-07-16T17:41:18.213Z,28.68
2018-07-16T17:44:20.217Z,28.52
2018-07-16T17:47:22.365Z,28.40
2018-07-16T17:50:24.426Z,28.33
2018-07-16T17:53:27.540Z,28.18
2018-07-16T17:56:29.572Z,27.37
2018-07-16T17:59:31.623Z,25.74
2018-07-16T18:02:33.632Z,24.42
2018-07-16T18:05:35.815Z,23.20
2018-07-16T18:08:37.751Z,22.40
2018-07-16T18:11:39.909Z,22.17
2018-07-16T18:14:42.713Z,22.11
2018-07-16T18:17:44.768Z,22.11
2018-07-16T18:20:46.855Z,22.05
2018-07-16T18:23:49.167Z,22.19
2018-07-16T18:26:51.164Z,22.14
2018-07-16T18:29:53.294Z,22.24
2018-07-16T18:32:55.355Z,22.46
2018-07-16T18:35:57.496Z,22.53
2018-07-16T18:38:59.667Z,22.49
2018-07-16T18:42:01.782Z,22.67
2018-07-16T18:45:04.044Z,22.67
2018-07-16T18:48:06.115Z,22.75
2018-07-16T18:51:08.344Z,22.89
2018-07-16T18:54:10.455Z,23.02
2018-07-16T18:57:13.510Z,23.22
2018-07-16T19:00:16.703Z,23.34
2018-07-16T19:03:19.129Z,23.37
2018-07-16T19:06:21.147Z,23.32
2018-07-16T19:09:23.268Z,23.06
2018-07-16T19:12:25.271Z,22.83
2018-07-16T19:15:28.020Z,22.49
2018-07-16T19:18:29.978Z,22.07
2018-07-16T19:21:32.160Z,21.82
2018-07-16T19:24:34.330Z,21.70
2018-07-16T19:27:36.467Z,21.58
2018-07-16T19:30:38.616Z,21.60
2018-07-16T19:33:40.685Z,21.53
2018-07-16T19:36:43.079Z,21.72
2018-07-16T19:39:45.203Z,21.80
2018-07-16T19:42:47.251Z,21.99
2018-07-16T19:45:49.343Z,22.08
2018-07-16T19:48:51.440Z,22.07
2018-07-16T19:51:53.516Z,22.12
2018-07-16T19:54:55.741Z,22.16
2018-07-16T19:57:58.017Z,22.23
2018-07-16T20:00:59.964Z,22.33
2018-07-16T20:04:02.138Z,22.36
2018-07-16T20:07:04.376Z,22.30
2018-07-16T20:10:06.592Z,22.19
2018-07-16T20:13:08.609Z,22.17
2018-07-16T20:16:11.948Z,22.23
2018-07-16T20:19:14.004Z,22.26
2018-07-16T20:22:16.327Z,22.24
2018-07-16T20:25:18.431Z,22.27
2018-07-16T20:28:20.532Z,22.30
2018-07-16T20:31:22.544Z,22.24
2018-07-16T20:34:24.688Z,22.31
2018-07-16T20:37:26.812Z,22.31
2018-07-16T20:40:28.927Z,22.28
2018-07-16T20:43:31.076Z,22.10
2018-07-16T20:46:33.262Z,22.06
2018-07-16T20:49:35.407Z,22.00
2018-07-16T20:52:37.420Z,22.01
2018-07-16T20:55:39.523Z,21.94
2018-07-16T20:58:42.890Z,21.82
2018-07-16T21:01:45.028Z,21.81
2018-07-16T21:04:47.088Z,21.85
2018-07-16T21:07:49.349Z,21.72
2018-07-16T21:10:51.418Z,21.60
2018-07-16T21:13:53.633Z,21.60
2018-07-16T21:16:56.012Z,21.64
2018-07-16T21:19:58.123Z,21.61
2018-07-16T21:23:00.212Z,21.58
2018-07-16T21:26:02.507Z,21.51
2018-07-16T21:29:06.821Z,21.46
2018-07-16T21:32:08.806Z,21.45
2018-07-16T21:35:10.976Z,21.42
2018-07-16T21:38:14.225Z,21.38
2018-07-16T21:41:16.577Z,21.35
2018-07-16T21:44:18.652Z,21.32
2018-07-16T21:47:20.725Z,21.30
2018-07-16T21:50:22.919Z,21.26
2018-07-16T21:53:24.843Z,21.23
2018-07-16T21:56:27.052Z,21.14
2018-07-16T21:59:29.148Z,21.06
2018-07-16T22:02:31.177Z,20.95
2018-07-16T22:05:33.338Z,20.91
2018-07-16T22:08:35.554Z,20.92
2018-07-16T22:11:37.658Z,20.76
2018-07-16T22:14:39.613Z,20.57
2018-07-16T22:17:41.716Z,20.32
2018-07-16T22:20:44.000Z,19.99
2018-07-16T22:23:46.089Z,19.97
2018-07-16T22:26:48.108Z,19.94
2018-07-16T22:29:50.194Z,19.99
2018-07-16T22:32:52.160Z,20.11
2018-07-16T22:35:54.245Z,20.17
2018-07-16T22:38:57.409Z,20.14
2018-07-16T22:41:59.532Z,20.20
2018-07-16T22:45:01.728Z,20.25
2018-07-16T22:48:03.969Z,20.27
2018-07-16T22:51:06.013Z,20.26
2018-07-16T22:54:08.232Z,20.27
2018-07-16T22:57:10.400Z,20.31
2018-07-16T23:00:12.516Z,20.12
2018-07-16T23:03:14.724Z,19.72
2018-07-16T23:06:16.908Z,19.68
2018-07-16T23:09:18.959Z,19.66
2018-07-16T23:12:20.964Z,19.66
2018-07-16T23:15:23.925Z,19.60
2018-07-16T23:18:26.059Z,19.59
2018-07-16T23:21:28.123Z,19.53
2018-07-16T23:24:30.202Z,19.52
2018-07-16T23:27:32.274Z,19.56
2018-07-16T23:30:34.327Z,19.59
2018-07-16T23:33:36.279Z,19.63
2018-07-16T23:36:38.531Z,19.64
2018-07-16T23:39:40.799Z,19.60
2018-07-16T23:42:44.040Z,19.60
2018-07-16T23:45:46.143Z,19.62
2018-07-16T23:48:49.211Z,19.62
2018-07-16T23:51:51.543Z,19.52
2018-07-16T23:54:53.652Z,19.51
2018-07-16T23:57:55.725Z,19.53
